Time;durP1;ratioP1;P1;durP2;ratioP2;P2;SDS_P1;SDS_P2;PMS_P1;PMS_P2;Temp;Humidity;BMP_temperature;BMP_pressure;BME280_temperature;BME280_humidity;BME280_pressure;Samples;Min_cycle;Max_cycle;Signal;HPM_P1;HPM_P2
2022/08/07 00:00:55;;;;;;;8.18;3.90;;;;;;;;;;4247614;33;20097;-68
2022/08/07 00:03:23;;;;;;;9.68;3.90;;;;;;;;;;4247466;33;20607;-68
2022/08/07 00:34:16;;;;;;;12.10;7.23;;;;;;;;;;5022753;28;20141;-66
2022/08/07 00:36:43;;;;;;;14.52;7.30;;;;;;;;;;4246029;33;20142;-67
2022/08/07 00:39:12;;;;;;;14.45;7.37;;;;;;;;;;4233916;33;20104;-67
2022/08/07 00:41:39;;;;;;;18.02;8.50;;;;;;;;;;4247358;33;20120;-67
2022/08/07 00:44:05;;;;;;;13.50;7.95;;;;;;;;;;4247190;33;20534;-65
2022/08/07 00:46:31;;;;;;;12.15;9.45;;;;;;;;;;4247050;33;20309;-68
2022/08/07 00:49:01;;;;;;;17.40;8.88;;;;;;;;;;4232395;33;20206;-67
2022/08/07 00:51:28;;;;;;;16.83;8.25;;;;;;;;;;4246812;33;20501;-67
2022/08/07 00:53:54;;;;;;;17.50;8.63;;;;;;;;;;4246934;33;20101;-67
2022/08/07 00:56:23;;;;;;;12.93;8.02;;;;;;;;;;4247140;33;20576;-67
2022/08/07 00:58:49;;;;;;;21.08;9.10;;;;;;;;;;4247203;33;20096;-67
2022/08/07 01:01:16;;;;;;;15.45;8.73;;;;;;;;;;4247134;33;20121;-67
2022/08/07 01:03:42;;;;;;;14.52;7.62;;;;;;;;;;4233990;33;20112;-67
2022/08/07 01:06:08;;;;;;;14.52;7.28;;;;;;;;;;4247196;33;20192;-67
2022/08/07 01:08:34;;;;;;;12.40;7.40;;;;;;;;;;4247240;33;20100;-67
2022/08/07 01:11:01;;;;;;;12.18;7.15;;;;;;;;;;4246974;33;20128;-68
2022/08/07 01:13:27;;;;;;;13.20;7.15;;;;;;;;;;4247004;33;20624;-67
2022/08/07 01:15:54;;;;;;;14.52;7.03;;;;;;;;;;4233823;33;20544;-67
2022/08/07 01:18:20;;;;;;;15.48;7.68;;;;;;;;;;4233810;33;20534;-67
2022/08/07 01:21:11;;;;;;;11.25;6.22;;;;;;;;;;4233899;33;20104;-67
2022/08/07 01:23:39;;;;;;;9.25;6.70;;;;;;;;;;4233894;33;20112;-66
2022/08/07 01:26:06;;;;;;;10.85;6.85;;;;;;;;;;4246908;33;20132;-67
2022/08/07 01:28:32;;;;;;;10.02;6.32;;;;;;;;;;4233788;33;20120;-67
2022/08/07 01:31:00;;;;;;;11.38;5.32;;;;;;;;;;4246791;33;20105;-67
2022/08/07 01:33:26;;;;;;;7.80;5.62;;;;;;;;;;4246836;33;20200;-68
2022/08/07 01:35:52;;;;;;;8.20;5.00;;;;;;;;;;4246890;33;20120;-67
2022/08/07 01:38:18;;;;;;;10.45;4.72;;;;;;;;;;4246713;33;20109;-67
2022/08/07 01:40:45;;;;;;;14.15;5.35;;;;;;;;;;4233715;33;20143;-67
2022/08/07 01:43:11;;;;;;;9.68;5.25;;;;;;;;;;4246746;33;20108;-68
2022/08/07 01:45:38;;;;;;;7.28;5.05;;;;;;;;;;4233891;33;20139;-67
2022/08/07 01:48:05;;;;;;;11.65;5.70;;;;;;;;;;4233486;33;20097;-67
2022/08/07 01:50:31;;;;;;;8.55;4.75;;;;;;;;;;4246509;33;20212;-67
2022/08/07 01:52:59;;;;;;;6.65;4.87;;;;;;;;;;4233459;33;20521;-67
2022/08/07 01:55:35;;;;;;;10.32;4.70;;;;;;;;;;4246618;33;20548;-67
2022/08/07 01:58:06;;;;;;;9.73;4.60;;;;;;;;;;4222227;33;20123;-67
2022/08/07 02:00:34;;;;;;;5.97;4.82;;;;;;;;;;4246426;33;20532;-67
2022/08/07 02:03:02;;;;;;;11.85;5.85;;;;;;;;;;4233560;33;20121;-66
2022/08/07 02:05:44;;;;;;;6.53;4.72;;;;;;;;;;4246549;33;20596;-64
2022/08/07 02:08:12;;;;;;;12.73;6.25;;;;;;;;;;4233264;33;20112;-65
2022/08/07 02:10:39;;;;;;;11.68;5.50;;;;;;;;;;4233266;33;20100;-65
2022/08/07 02:13:06;;;;;;;11.27;5.00;;;;;;;;;;4221955;33;20108;-65
2022/08/07 02:15:33;;;;;;;9.18;5.37;;;;;;;;;;4233578;33;20104;-65
2022/08/07 02:18:00;;;;;;;8.10;4.87;;;;;;;;;;4233242;33;20127;-65
2022/08/07 02:20:27;;;;;;;10.63;4.80;;;;;;;;;;4233306;33;20101;-65
2022/08/07 02:22:56;;;;;;;10.63;4.87;;;;;;;;;;4246244;33;20135;-65
2022/08/07 02:25:24;;;;;;;10.27;4.90;;;;;;;;;;4233290;33;20093;-65
2022/08/07 02:27:51;;;;;;;9.13;4.78;;;;;;;;;;4233240;33;20093;-65
2022/08/07 02:30:17;;;;;;;8.18;5.57;;;;;;;;;;4233318;33;20212;-65
2022/08/07 02:32:43;;;;;;;7.10;4.95;;;;;;;;;;4233021;33;20123;-65
2022/08/07 02:35:10;;;;;;;5.57;4.40;;;;;;;;;;4246378;33;20097;-65
2022/08/07 02:37:38;;;;;;;7.90;5.22;;;;;;;;;;4221510;33;20112;-65
2022/08/07 02:40:07;;;;;;;5.82;4.60;;;;;;;;;;4232956;33;20136;-65
2022/08/07 02:42:34;;;;;;;14.55;7.05;;;;;;;;;;4232919;33;20578;-65
2022/08/07 02:45:02;;;;;;;10.15;5.25;;;;;;;;;;4246071;33;20452;-65
2022/08/07 02:47:28;;;;;;;8.80;4.43;;;;;;;;;;4246086;33;20469;-64
2022/08/07 02:49:55;;;;;;;6.32;4.72;;;;;;;;;;4246080;33;20197;-65
2022/08/07 02:52:30;;;;;;;8.20;4.70;;;;;;;;;;4245982;33;20236;-64
2022/08/07 02:55:04;;;;;;;9.65;4.32;;;;;;;;;;4233165;33;20177;-65
2022/08/07 02:57:31;;;;;;;7.57;4.70;;;;;;;;;;4233252;33;20214;-65
2022/08/07 02:59:57;;;;;;;7.15;4.70;;;;;;;;;;4232386;33;20140;-65
2022/08/07 03:02:23;;;;;;;12.82;5.35;;;;;;;;;;4232061;33;20101;-65
2022/08/07 03:04:50;;;;;;;10.20;5.00;;;;;;;;;;4232907;33;20207;-65
2022/08/07 03:07:17;;;;;;;8.55;6.10;;;;;;;;;;4245965;33;20139;-65
2022/08/07 03:09:43;;;;;;;5.95;5.00;;;;;;;;;;4245687;33;20103;-65
2022/08/07 03:12:11;;;;;;;12.27;5.78;;;;;;;;;;4233056;33;20128;-65
2022/08/07 03:14:38;;;;;;;12.02;5.80;;;;;;;;;;4234881;33;20430;-65
2022/08/07 03:17:04;;;;;;;6.55;5.12;;;;;;;;;;4235084;33;20556;-64
2022/08/07 03:19:31;;;;;;;12.50;5.62;;;;;;;;;;4247874;33;20620;-64
2022/08/07 03:21:57;;;;;;;11.90;5.32;;;;;;;;;;4235119;33;20121;-64
2022/08/07 03:24:23;;;;;;;6.78;5.10;;;;;;;;;;4247796;33;20123;-64
2022/08/07 03:26:50;;;;;;;16.65;7.20;;;;;;;;;;4248019;33;20124;-64
2022/08/07 03:29:17;;;;;;;8.85;5.35;;;;;;;;;;4247628;33;20111;-64
2022/08/07 03:31:44;;;;;;;13.57;5.90;;;;;;;;;;4235017;33;20260;-64
2022/08/07 03:34:11;;;;;;;11.00;5.20;;;;;;;;;;4234806;33;20191;-64
2022/08/07 03:36:38;;;;;;;9.55;5.82;;;;;;;;;;4234749;33;20538;-64
2022/08/07 03:39:07;;;;;;;8.52;5.60;;;;;;;;;;4234417;33;20120;-64
2022/08/07 03:41:34;;;;;;;9.23;4.85;;;;;;;;;;4234901;33;20116;-64
2022/08/07 03:44:01;;;;;;;8.88;4.93;;;;;;;;;;4247606;33;20483;-65
2022/08/07 03:46:27;;;;;;;11.20;6.62;;;;;;;;;;4247570;33;20124;-65
2022/08/07 03:48:53;;;;;;;13.62;7.43;;;;;;;;;;4247853;33;20517;-65
2022/08/07 03:51:20;;;;;;;13.55;6.22;;;;;;;;;;4247820;33;20223;-65
2022/08/07 03:53:47;;;;;;;10.80;7.12;;;;;;;;;;4247354;33;20108;-65
2022/08/07 03:56:19;;;;;;;12.82;7.37;;;;;;;;;;4234630;33;20116;-64
2022/08/07 03:58:46;;;;;;;11.82;6.53;;;;;;;;;;4223119;33;20117;-65
2022/08/07 04:01:12;;;;;;;16.50;6.97;;;;;;;;;;4234843;33;20109;-65
2022/08/07 04:03:39;;;;;;;15.93;7.85;;;;;;;;;;4222903;33;20452;-65
2022/08/07 04:06:09;;;;;;;11.05;7.60;;;;;;;;;;4247424;33;20227;-65
2022/08/07 04:08:36;;;;;;;10.75;7.30;;;;;;;;;;4234286;33;20453;-65
2022/08/07 04:11:02;;;;;;;16.12;7.60;;;;;;;;;;4247609;33;20200;-65
2022/08/07 04:13:28;;;;;;;11.50;7.37;;;;;;;;;;4247719;33;20085;-64
2022/08/07 04:15:54;;;;;;;13.50;7.95;;;;;;;;;;4247437;33;20223;-65
2022/08/07 04:18:20;;;;;;;10.45;8.13;;;;;;;;;;4234274;33;20564;-65
2022/08/07 04:20:46;;;;;;;12.30;7.90;;;;;;;;;;4247564;33;20093;-65
2022/08/07 04:23:12;;;;;;;14.68;8.32;;;;;;;;;;4247327;33;20440;-65
2022/08/07 04:25:39;;;;;;;16.52;8.10;;;;;;;;;;4247303;33;20113;-65
2022/08/07 04:28:06;;;;;;;9.73;7.37;;;;;;;;;;4234178;33;20524;-65
2022/08/07 04:30:34;;;;;;;10.35;7.75;;;;;;;;;;4234304;33;20086;-65
2022/08/07 04:33:00;;;;;;;14.27;7.05;;;;;;;;;;4247324;33;20124;-64
2022/08/07 04:35:26;;;;;;;13.20;7.12;;;;;;;;;;4247267;33;20109;-64
2022/08/07 04:37:52;;;;;;;12.15;6.80;;;;;;;;;;4222438;33;20276;-64
2022/08/07 04:40:18;;;;;;;10.95;6.85;;;;;;;;;;4247124;33;20113;-64
2022/08/07 04:42:44;;;;;;;18.23;7.57;;;;;;;;;;4234380;33;20119;-64
2022/08/07 04:45:12;;;;;;;13.70;6.70;;;;;;;;;;4247388;33;20453;-64
2022/08/07 04:47:42;;;;;;;12.75;7.00;;;;;;;;;;4247252;33;20105;-63
2022/08/07 04:50:13;;;;;;;16.02;7.32;;;;;;;;;;4233977;33;20128;-65
2022/08/07 04:52:49;;;;;;;19.37;8.07;;;;;;;;;;4247478;33;20112;-65
2022/08/07 04:55:25;;;;;;;15.82;8.60;;;;;;;;;;4233996;33;20109;-64
2022/08/07 04:58:11;;;;;;;14.15;8.48;;;;;;;;;;4234136;33;20131;-64
2022/08/07 05:00:49;;;;;;;16.98;10.73;;;;;;;;;;4247413;33;20360;-64
2022/08/07 05:03:18;;;;;;;21.02;10.77;;;;;;;;;;4247374;33;20124;-64
2022/08/07 05:05:54;;;;;;;27.87;11.65;;;;;;;;;;4247238;33;20111;-64
2022/08/07 05:08:25;;;;;;;26.90;14.65;;;;;;;;;;4247016;33;20469;-64
2022/08/07 05:11:03;;;;;;;30.80;16.27;;;;;;;;;;4234177;33;20460;-64
2022/08/07 05:13:38;;;;;;;32.78;15.05;;;;;;;;;;4246906;33;20468;-64
2022/08/07 05:16:09;;;;;;;33.25;15.85;;;;;;;;;;4234090;33;20565;-63
2022/08/07 05:18:39;;;;;;;28.33;15.77;;;;;;;;;;4247494;33;20220;-64
2022/08/07 05:21:08;;;;;;;31.33;15.25;;;;;;;;;;4234107;33;20208;-64
2022/08/07 05:23:43;;;;;;;35.42;15.57;;;;;;;;;;4246689;33;20387;-64
2022/08/07 05:26:12;;;;;;;40.90;16.67;;;;;;;;;;4246968;33;20191;-64
2022/08/07 05:28:39;;;;;;;42.72;17.02;;;;;;;;;;4233885;33;20100;-64
2022/08/07 05:31:05;;;;;;;40.10;15.85;;;;;;;;;;4233621;33;20105;-64
2022/08/07 05:33:33;;;;;;;54.25;18.62;;;;;;;;;;4233658;33;20191;-64
2022/08/07 05:36:00;;;;;;;50.30;19.85;;;;;;;;;;4233374;33;20426;-65
2022/08/07 05:38:27;;;;;;;43.35;20.17;;;;;;;;;;4233431;33;20111;-65
2022/08/07 05:40:53;;;;;;;53.47;21.55;;;;;;;;;;4233724;33;20117;-65
2022/08/07 05:43:19;;;;;;;46.37;20.90;;;;;;;;;;4233707;33;20100;-65
2022/08/07 05:45:46;;;;;;;61.10;21.83;;;;;;;;;;4246608;33;20564;-65
2022/08/07 05:48:13;;;;;;;42.62;19.87;;;;;;;;;;4246903;33;20108;-65
2022/08/07 05:50:40;;;;;;;42.28;20.45;;;;;;;;;;4246900;33;20144;-65
2022/08/07 05:53:06;;;;;;;42.58;20.58;;;;;;;;;;4246604;33;20101;-64
2022/08/07 05:55:35;;;;;;;57.08;22.83;;;;;;;;;;4222021;33;20124;-65
2022/08/07 05:58:01;;;;;;;48.00;21.12;;;;;;;;;;4246546;33;20142;-65
2022/08/07 06:00:28;;;;;;;53.10;21.90;;;;;;;;;;4233744;33;20129;-64
2022/08/07 06:02:55;;;;;;;46.00;18.48;;;;;;;;;;4210057;33;20100;-65
2022/08/07 06:05:25;;;;;;;50.15;19.52;;;;;;;;;;4246689;33;20171;-65
2022/08/07 06:07:51;;;;;;;50.90;18.42;;;;;;;;;;4246514;33;20572;-65
2022/08/07 06:10:17;;;;;;;54.85;18.58;;;;;;;;;;4233106;33;20529;-65
2022/08/07 06:12:43;;;;;;;52.53;21.17;;;;;;;;;;4233396;33;20127;-65
2022/08/07 06:15:13;;;;;;;55.65;19.00;;;;;;;;;;4233459;33;20109;-65
2022/08/07 06:17:40;;;;;;;42.55;17.83;;;;;;;;;;4233302;33;20088;-65
2022/08/07 06:20:09;;;;;;;54.20;19.62;;;;;;;;;;4246320;33;20191;-64
2022/08/07 06:22:36;;;;;;;50.53;18.87;;;;;;;;;;4233351;33;20121;-65
2022/08/07 06:25:03;;;;;;;45.35;19.42;;;;;;;;;;4233101;33;20165;-64
2022/08/07 06:27:30;;;;;;;45.97;16.85;;;;;;;;;;4233277;33;20103;-64
2022/08/07 06:29:56;;;;;;;35.10;15.63;;;;;;;;;;4246200;33;20104;-65
2022/08/07 06:32:22;;;;;;;49.97;18.45;;;;;;;;;;4246384;33;20539;-65
2022/08/07 06:34:48;;;;;;;44.80;18.05;;;;;;;;;;4246163;33;20595;-64
2022/08/07 06:37:14;;;;;;;44.22;18.87;;;;;;;;;;4246054;33;20445;-64
2022/08/07 06:39:40;;;;;;;33.10;15.18;;;;;;;;;;4232790;33;20457;-65
2022/08/07 06:42:19;;;;;;;28.42;11.38;;;;;;;;;;4246356;33;20127;-65
2022/08/07 06:44:47;;;;;;;31.10;12.20;;;;;;;;;;4245977;33;20448;-65
2022/08/07 06:47:13;;;;;;;27.17;11.43;;;;;;;;;;4233449;33;20127;-65
2022/08/07 06:49:40;;;;;;;28.98;11.63;;;;;;;;;;4235193;33;20192;-65
2022/08/07 06:52:08;;;;;;;23.38;10.00;;;;;;;;;;4223572;33;20093;-65
2022/08/07 06:54:34;;;;;;;11.30;6.50;;;;;;;;;;4235183;33;20179;-65
2022/08/07 06:57:01;;;;;;;14.32;6.75;;;;;;;;;;4235168;33;20572;-65
2022/08/07 06:59:38;;;;;;;11.10;6.15;;;;;;;;;;4235064;33;20112;-65
2022/08/07 07:02:07;;;;;;;11.23;6.70;;;;;;;;;;4235055;33;20100;-65
2022/08/07 07:04:33;;;;;;;16.87;6.90;;;;;;;;;;4235079;33;20132;-64
2022/08/07 07:07:01;;;;;;;20.45;7.55;;;;;;;;;;4248370;33;20124;-64
2022/08/07 07:09:29;;;;;;;11.98;7.07;;;;;;;;;;4234726;33;20104;-64
2022/08/07 07:12:07;;;;;;;14.55;6.78;;;;;;;;;;4234929;33;20508;-65
2022/08/07 07:14:51;;;;;;;15.88;7.65;;;;;;;;;;4248103;33;20123;-65
2022/08/07 07:17:27;;;;;;;22.20;8.45;;;;;;;;;;4234860;33;20176;-65
2022/08/07 07:19:57;;;;;;;14.10;7.30;;;;;;;;;;4247979;33;20492;-65
2022/08/07 07:22:23;;;;;;;16.25;8.57;;;;;;;;;;4235053;33;20196;-65
2022/08/07 07:24:50;;;;;;;12.80;5.90;;;;;;;;;;4248094;33;20108;-65
2022/08/07 07:27:17;;;;;;;9.65;4.87;;;;;;;;;;4234127;33;20120;-64
2022/08/07 07:29:47;;;;;;;15.13;6.00;;;;;;;;;;4234511;33;20180;-65
2022/08/07 07:32:13;;;;;;;15.52;5.72;;;;;;;;;;4234643;33;20203;-65
2022/08/07 07:34:43;;;;;;;11.80;5.12;;;;;;;;;;4247566;33;20136;-65
2022/08/07 07:37:10;;;;;;;11.48;5.05;;;;;;;;;;4234650;33;20187;-64
2022/08/07 07:39:38;;;;;;;8.50;3.60;;;;;;;;;;4234686;33;20116;-65
2022/08/07 07:42:05;;;;;;;8.20;4.30;;;;;;;;;;4234867;33;20109;-64
2022/08/07 07:44:32;;;;;;;5.37;4.85;;;;;;;;;;4247460;33;20100;-65
2022/08/07 07:47:00;;;;;;;5.80;4.80;;;;;;;;;;4234595;33;20138;-65
2022/08/07 07:49:27;;;;;;;10.60;3.62;;;;;;;;;;4234362;33;20096;-65
2022/08/07 07:51:55;;;;;;;9.43;4.25;;;;;;;;;;4247651;33;20501;-65
2022/08/07 07:54:21;;;;;;;5.97;3.95;;;;;;;;;;4234425;33;20118;-65
2022/08/07 07:56:49;;;;;;;7.60;4.32;;;;;;;;;;4247574;33;20123;-65
2022/08/07 07:59:15;;;;;;;4.28;3.20;;;;;;;;;;4234165;33;20124;-65
2022/08/07 08:01:42;;;;;;;9.27;3.37;;;;;;;;;;4234487;33;20207;-65
2022/08/07 08:04:09;;;;;;;4.40;2.95;;;;;;;;;;4234571;33;20116;-65
2022/08/07 08:06:35;;;;;;;10.85;2.87;;;;;;;;;;4247550;33;20452;-65
2022/08/07 08:09:03;;;;;;;2.70;2.50;;;;;;;;;;4234250;33;20555;-65
2022/08/07 08:11:29;;;;;;;3.72;2.80;;;;;;;;;;4234325;33;20105;-64
2022/08/07 08:13:55;;;;;;;3.83;3.15;;;;;;;;;;4234554;33;20112;-64
2022/08/07 08:16:38;;;;;;;3.03;2.65;;;;;;;;;;4234425;33;20112;-65
2022/08/07 08:19:11;;;;;;;3.45;2.75;;;;;;;;;;4247425;33;20724;-65
2022/08/07 08:27:14;;;;;;;5.75;2.70;;;;;;;;;;4236251;33;20133;-65
2022/08/07 08:29:55;;;;;;;9.13;2.87;;;;;;;;;;4234192;33;20335;-65
2022/08/07 08:32:23;;;;;;;3.20;2.70;;;;;;;;;;4234218;33;20124;-65
2022/08/07 08:34:50;;;;;;;9.38;3.75;;;;;;;;;;4247265;33;20196;-65
2022/08/07 08:37:17;;;;;;;3.58;2.85;;;;;;;;;;4247214;33;20505;-65
2022/08/07 08:39:44;;;;;;;9.88;3.30;;;;;;;;;;4247151;33;20208;-64
2022/08/07 08:42:16;;;;;;;3.70;3.30;;;;;;;;;;4247107;33;20113;-65
2022/08/07 08:44:51;;;;;;;7.47;3.70;;;;;;;;;;4222847;33;20108;-65
2022/08/07 08:47:31;;;;;;;4.12;2.58;;;;;;;;;;4234269;33;20105;-64
2022/08/07 08:50:12;;;;;;;10.45;3.12;;;;;;;;;;4233917;33;20121;-65
2022/08/07 08:52:57;;;;;;;4.07;2.78;;;;;;;;;;4234448;33;20115;-64
2022/08/07 08:55:43;;;;;;;3.47;2.83;;;;;;;;;;4234327;33;20140;-65
2022/08/07 08:58:29;;;;;;;5.68;2.20;;;;;;;;;;4233984;33;20553;-65
2022/08/07 09:01:01;;;;;;;2.75;2.33;;;;;;;;;;4247009;33;20105;-65
2022/08/07 09:03:40;;;;;;;4.12;3.00;;;;;;;;;;4247097;33;20115;-65
2022/08/07 09:06:48;;;;;;;5.90;2.55;;;;;;;;;;4246848;33;20120;-65
2022/08/07 09:09:39;;;;;;;4.53;2.65;;;;;;;;;;4227041;33;20132;-65
2022/08/07 09:12:26;;;;;;;2.47;2.20;;;;;;;;;;4233449;33;20101;-65
2022/08/07 09:15:10;;;;;;;7.07;2.85;;;;;;;;;;4246131;33;20117;-66
2022/08/07 09:17:45;;;;;;;10.27;2.87;;;;;;;;;;4232976;33;20112;-64
2022/08/07 09:20:24;;;;;;;2.72;2.53;;;;;;;;;;4221837;33;20093;-64
2022/08/07 09:22:53;;;;;;;5.55;2.80;;;;;;;;;;4233575;33;20493;-65
2022/08/07 09:25:42;;;;;;;4.53;2.97;;;;;;;;;;4231311;33;20197;-64
2022/08/07 09:28:23;;;;;;;4.10;2.87;;;;;;;;;;4217966;33;20097;-65
2022/08/07 09:31:07;;;;;;;5.20;3.53;;;;;;;;;;4221839;33;20119;-65
2022/08/07 09:33:51;;;;;;;3.55;2.65;;;;;;;;;;4246300;33;20108;-63
2022/08/07 09:36:29;;;;;;;4.20;2.63;;;;;;;;;;4246668;33;20216;-65
2022/08/07 09:39:24;;;;;;;6.30;2.60;;;;;;;;;;4246949;33;20105;-64
2022/08/07 09:42:11;;;;;;;4.37;2.63;;;;;;;;;;4221989;33;20119;-64
2022/08/07 09:44:51;;;;;;;4.25;2.50;;;;;;;;;;4246820;33;20203;-65
2022/08/07 09:47:35;;;;;;;4.05;2.87;;;;;;;;;;4198668;33;20103;-66
2022/08/07 09:50:12;;;;;;;2.70;2.08;;;;;;;;;;4233026;33;20128;-66
2022/08/07 09:52:47;;;;;;;2.65;2.45;;;;;;;;;;4233624;33;20107;-66
2022/08/07 09:55:35;;;;;;;2.83;2.22;;;;;;;;;;4233506;33;20212;-66
2022/08/07 09:58:46;;;;;;;4.53;2.53;;;;;;;;;;4232816;33;20138;-65
2022/08/07 10:01:31;;;;;;;4.62;3.10;;;;;;;;;;4230031;33;20097;-64
2022/08/07 10:04:13;;;;;;;3.92;2.80;;;;;;;;;;4232484;33;20105;-64
2022/08/07 10:06:42;;;;;;;3.37;2.65;;;;;;;;;;4207713;33;20197;-70
2022/08/07 10:09:31;;;;;;;2.90;2.70;;;;;;;;;;4219516;33;20259;-65
2022/08/07 10:12:16;;;;;;;2.67;2.47;;;;;;;;;;4236883;33;20089;-64
2022/08/07 10:14:51;;;;;;;4.18;2.47;;;;;;;;;;4232309;33;20109;-65
2022/08/07 10:17:53;;;;;;;4.47;2.55;;;;;;;;;;4232291;33;20875;-69
2022/08/07 10:21:15;;;;;;;3.30;2.50;;;;;;;;;;4219183;33;20211;-69
2022/08/07 10:24:14;;;;;;;4.12;2.60;;;;;;;;;;4199676;33;20109;-66
2022/08/07 10:26:59;;;;;;;3.08;2.75;;;;;;;;;;4232418;33;20109;-66
2022/08/07 10:29:43;;;;;;;4.23;2.63;;;;;;;;;;4232111;33;20109;-66
2022/08/07 10:32:28;;;;;;;6.60;2.80;;;;;;;;;;4246084;33;20507;-67
2022/08/07 10:35:08;;;;;;;7.73;2.73;;;;;;;;;;4246215;33;20475;-67
2022/08/07 10:37:34;;;;;;;2.83;2.60;;;;;;;;;;4232857;33;20490;-66
2022/08/07 10:40:19;;;;;;;4.32;2.60;;;;;;;;;;4232351;33;20081;-65
2022/08/07 10:43:24;;;;;;;6.83;3.30;;;;;;;;;;4221487;33;20548;-66
2022/08/07 10:46:15;;;;;;;4.97;3.00;;;;;;;;;;4245566;33;20551;-67
2022/08/07 10:48:48;;;;;;;4.68;2.40;;;;;;;;;;4227148;33;20516;-66
2022/08/07 10:51:21;;;;;;;4.43;2.60;;;;;;;;;;4220629;33;20627;-64
2022/08/07 10:54:13;;;;;;;4.47;2.95;;;;;;;;;;4246073;33;20539;-66
2022/08/07 10:56:48;;;;;;;9.73;3.35;;;;;;;;;;4245918;33;20104;-64
2022/08/07 10:59:31;;;;;;;;;;;;;;;;;;4246154;33;20113;-64
2022/08/07 11:02:22;;;;;;;4.03;3.00;;;;;;;;;;4245872;33;20087;-65
2022/08/07 11:04:57;;;;;;;4.45;2.65;;;;;;;;;;4232589;33;20102;-64
2022/08/07 11:07:35;;;;;;;4.35;3.22;;;;;;;;;;4245822;33;20143;-64
2022/08/07 11:10:04;;;;;;;5.05;2.90;;;;;;;;;;4245836;33;20138;-66
2022/08/07 11:12:36;;;;;;;7.10;3.00;;;;;;;;;;4232782;33;20180;-64
2022/08/07 11:15:07;;;;;;;6.15;2.90;;;;;;;;;;4220976;33;20117;-65
2022/08/07 11:17:57;;;;;;;5.22;2.75;;;;;;;;;;4246040;33;20108;-65
2022/08/07 11:20:30;;;;;;;3.67;3.15;;;;;;;;;;4245474;33;20220;-67
2022/08/07 11:23:22;;;;;;;6.40;3.62;;;;;;;;;;4232154;33;20117;-65
2022/08/07 11:26:00;;;;;;;4.40;3.00;;;;;;;;;;4238047;33;20446;-66
2022/08/07 11:28:29;;;;;;;3.42;2.72;;;;;;;;;;4232450;33;20093;-65
2022/08/07 11:31:16;;;;;;;8.90;3.17;;;;;;;;;;4231834;33;20139;-66
2022/08/07 11:33:53;;;;;;;7.90;3.40;;;;;;;;;;4246102;33;20096;-65
2022/08/07 11:36:29;;;;;;;4.78;3.87;;;;;;;;;;4246689;33;20124;-66
2022/08/07 11:39:32;;;;;;;3.80;3.40;;;;;;;;;;4230543;33;20113;-64
2022/08/07 11:42:10;;;;;;;7.07;3.58;;;;;;;;;;4240290;33;20100;-63
2022/08/07 11:45:08;;;;;;;5.05;3.50;;;;;;;;;;4234109;33;20524;-65
2022/08/07 11:48:09;;;;;;;10.70;4.40;;;;;;;;;;4237245;33;20140;-66
2022/08/07 11:50:58;;;;;;;10.43;4.30;;;;;;;;;;4198625;33;20109;-65
2022/08/07 11:53:45;;;;;;;8.20;4.57;;;;;;;;;;4211486;33;20196;-64
2022/08/07 11:56:40;;;;;;;10.82;4.35;;;;;;;;;;4234427;33;20101;-65
2022/08/07 11:59:23;;;;;;;10.93;4.62;;;;;;;;;;4247544;33;20192;-65
2022/08/07 12:01:58;;;;;;;13.88;4.57;;;;;;;;;;4246265;33;20156;-63
2022/08/07 12:04:59;;;;;;;10.38;4.60;;;;;;;;;;4232469;33;20207;-64
2022/08/07 12:07:31;;;;;;;10.18;3.92;;;;;;;;;;4217043;33;20611;-65
2022/08/07 12:10:34;;;;;;;6.65;3.72;;;;;;;;;;4233206;33;20622;-64
2022/08/07 12:13:23;;;;;;;7.47;3.40;;;;;;;;;;4245393;33;20129;-63
2022/08/07 12:15:52;;;;;;;7.68;3.95;;;;;;;;;;4244679;33;20113;-66
2022/08/07 12:18:34;;;;;;;7.32;3.58;;;;;;;;;;4234129;33;20596;-66
2022/08/07 12:21:18;;;;;;;4.60;3.42;;;;;;;;;;4247431;33;20111;-63
2022/08/07 12:23:51;;;;;;;4.97;3.10;;;;;;;;;;4233350;33;20498;-64
2022/08/07 12:26:40;;;;;;;3.40;2.95;;;;;;;;;;4197121;33;20097;-67
2022/08/07 12:29:25;;;;;;;4.72;3.00;;;;;;;;;;4219965;33;20117;-66
2022/08/07 12:32:23;;;;;;;4.80;2.80;;;;;;;;;;4245849;33;20105;-67
2022/08/07 12:34:50;;;;;;;5.03;3.15;;;;;;;;;;4233990;33;20104;-65
2022/08/07 12:37:17;;;;;;;4.37;3.08;;;;;;;;;;4234301;33;20566;-67
2022/08/07 12:39:45;;;;;;;5.35;3.85;;;;;;;;;;4234050;33;20105;-67
2022/08/07 12:42:12;;;;;;;7.80;3.50;;;;;;;;;;4222448;33;20505;-67
2022/08/07 12:44:40;;;;;;;6.72;4.22;;;;;;;;;;4233288;33;20544;-67
2022/08/07 12:47:28;;;;;;;7.20;3.60;;;;;;;;;;4233785;33;21961;-68
2022/08/07 12:50:12;;;;;;;5.15;3.20;;;;;;;;;;4247045;33;20683;-68
2022/08/07 12:52:49;;;;;;;7.72;3.80;;;;;;;;;;4234335;33;20191;-68
2022/08/07 12:55:26;;;;;;;7.97;3.33;;;;;;;;;;4234223;33;20097;-67
2022/08/07 12:57:55;;;;;;;5.62;3.70;;;;;;;;;;4234185;33;20097;-66
2022/08/07 13:00:28;;;;;;;15.82;4.50;;;;;;;;;;4247280;33;20121;-66
2022/08/07 13:03:31;;;;;;;12.05;3.30;;;;;;;;;;4247034;33;20444;-65
2022/08/07 13:06:16;;;;;;;4.62;2.97;;;;;;;;;;4246922;33;20188;-64
2022/08/07 13:09:01;;;;;;;4.82;2.70;;;;;;;;;;4246953;33;20215;-67
2022/08/07 13:11:40;;;;;;;6.80;2.85;;;;;;;;;;4233977;33;20113;-68
2022/08/07 13:14:29;;;;;;;2.90;2.60;;;;;;;;;;4233792;33;20223;-67
2022/08/07 13:17:17;;;;;;;5.82;2.90;;;;;;;;;;4217387;33;20105;-67
2022/08/07 13:19:49;;;;;;;5.12;2.47;;;;;;;;;;4246914;33;20202;-68
2022/08/07 13:22:21;;;;;;;3.85;2.58;;;;;;;;;;4246913;33;20116;-68
2022/08/07 13:24:51;;;;;;;5.45;2.55;;;;;;;;;;4246891;33;20140;-68
2022/08/07 13:27:27;;;;;;;6.85;2.62;;;;;;;;;;4233744;33;20129;-68
2022/08/07 13:30:12;;;;;;;8.32;3.08;;;;;;;;;;4221520;33;20219;-68
2022/08/07 13:32:45;;;;;;;5.07;3.20;;;;;;;;;;4246717;33;20100;-70
2022/08/07 13:35:37;;;;;;;3.20;2.50;;;;;;;;;;4233814;33;20101;-71
2022/08/07 13:38:30;;;;;;;11.80;3.33;;;;;;;;;;4238265;33;20123;-68
2022/08/07 13:41:13;;;;;;;3.78;2.53;;;;;;;;;;4247173;33;20114;-72
2022/08/07 13:43:44;;;;;;;3.25;2.75;;;;;;;;;;4246391;33;20143;-66
2022/08/07 13:46:12;;;;;;;10.55;3.10;;;;;;;;;;4246666;33;20117;-68
2022/08/07 13:48:39;;;;;;;8.27;3.42;;;;;;;;;;4246556;33;20113;-67
2022/08/07 13:51:08;;;;;;;5.25;2.97;;;;;;;;;;4233391;33;20199;-69
2022/08/07 13:53:39;;;;;;;6.00;3.00;;;;;;;;;;4233525;33;20219;-68
2022/08/07 13:56:05;;;;;;;6.72;2.85;;;;;;;;;;4245290;33;20128;-66
2022/08/07 14:01:27;;;;;;;4.93;3.08;;;;;;;;;;4234204;33;20204;-67
2022/08/07 14:03:54;;;;;;;5.32;3.10;;;;;;;;;;4240677;33;20191;-68
2022/08/07 14:06:21;;;;;;;4.05;2.70;;;;;;;;;;4237490;33;20128;-68
2022/08/07 14:08:49;;;;;;;4.93;2.62;;;;;;;;;;4239039;33;20117;-73
2022/08/07 14:11:17;;;;;;;12.20;3.97;;;;;;;;;;4237832;33;20196;-70
2022/08/07 14:13:53;;;;;;;6.03;3.17;;;;;;;;;;4225505;33;20113;-71
2022/08/07 14:16:19;;;;;;;10.55;4.65;;;;;;;;;;4239805;33;20128;-71
2022/08/07 14:18:50;;;;;;;5.20;3.50;;;;;;;;;;4238032;33;20135;-70
2022/08/07 14:21:31;;;;;;;4.55;3.22;;;;;;;;;;4243597;33;20489;-70
2022/08/07 14:24:04;;;;;;;5.10;3.00;;;;;;;;;;4246254;33;20120;-70
2022/08/07 14:26:48;;;;;;;6.22;3.42;;;;;;;;;;4232230;33;20132;-69
2022/08/07 14:29:18;;;;;;;5.82;3.28;;;;;;;;;;4244119;33;20131;-69
2022/08/07 14:31:46;;;;;;;6.97;3.60;;;;;;;;;;4230970;33;20521;-69
2022/08/07 14:34:13;;;;;;;6.53;3.37;;;;;;;;;;4244484;33;20125;-67
2022/08/07 14:36:40;;;;;;;7.97;3.45;;;;;;;;;;4246118;33;20555;-67
2022/08/07 14:39:07;;;;;;;4.00;2.85;;;;;;;;;;4245922;33;20512;-68
2022/08/07 14:41:34;;;;;;;11.23;3.60;;;;;;;;;;4245388;33;20120;-69
2022/08/07 14:44:02;;;;;;;4.75;2.90;;;;;;;;;;4245893;33;20109;-70
2022/08/07 14:46:29;;;;;;;4.97;3.45;;;;;;;;;;4233035;33;20108;-74
2022/08/07 14:48:56;;;;;;;6.15;3.10;;;;;;;;;;4232858;33;20202;-65
2022/08/07 14:51:26;;;;;;;3.92;1.80;;;;;;;;;;4232836;33;20489;-65
2022/08/07 14:53:54;;;;;;;2.35;1.98;;;;;;;;;;4232942;33;20128;-67
2022/08/07 14:56:22;;;;;;;5.50;2.62;;;;;;;;;;4245519;33;20136;-67
2022/08/07 14:58:54;;;;;;;10.40;3.17;;;;;;;;;;4245877;33;20112;-67
2022/08/07 15:01:26;;;;;;;6.90;3.37;;;;;;;;;;4232395;33;20128;-68
2022/08/07 15:03:52;;;;;;;3.33;3.03;;;;;;;;;;4246024;33;20100;-67
2022/08/07 15:06:27;;;;;;;10.98;3.25;;;;;;;;;;4232449;33;20127;-67
2022/08/07 15:08:53;;;;;;;8.25;2.72;;;;;;;;;;4233529;33;20085;-68
2022/08/07 15:11:29;;;;;;;3.70;2.72;;;;;;;;;;4234198;33;20116;-66
2022/08/07 15:14:00;;;;;;;4.70;2.97;;;;;;;;;;4234568;33;20146;-67
2022/08/07 15:16:47;;;;;;;5.45;2.92;;;;;;;;;;4245968;33;20108;-65
2022/08/07 15:19:18;;;;;;;4.82;3.08;;;;;;;;;;4247850;33;20168;-65
2022/08/07 15:21:54;;;;;;;7.25;3.37;;;;;;;;;;4234976;33;20532;-65
2022/08/07 15:24:28;;;;;;;5.68;2.80;;;;;;;;;;4235063;33;20124;-67
2022/08/07 15:27:13;;;;;;;7.45;3.65;;;;;;;;;;4248149;33;20109;-68
2022/08/07 15:29:45;;;;;;;9.55;3.30;;;;;;;;;;4247817;33;20198;-67
2022/08/07 15:32:12;;;;;;;3.58;2.92;;;;;;;;;;4248085;33;20192;-68
2022/08/07 15:34:43;;;;;;;7.22;3.45;;;;;;;;;;4247659;33;20124;-67
2022/08/07 15:37:10;;;;;;;3.70;2.70;;;;;;;;;;4234918;33;20121;-67
2022/08/07 15:39:39;;;;;;;7.55;3.47;;;;;;;;;;4247688;33;20093;-67
2022/08/07 15:42:05;;;;;;;3.83;3.22;;;;;;;;;;4247762;33;20117;-69
2022/08/07 15:44:44;;;;;;;6.97;3.50;;;;;;;;;;4247589;33;20207;-68
2022/08/07 15:47:13;;;;;;;5.20;3.35;;;;;;;;;;4247748;33;20468;-68